Time;durP1;ratioP1;P1;durP2;ratioP2;P2;SDS_P1;SDS_P2;PMS_P1;PMS_P2;Temp;Humidity;BMP_temperature;BMP_pressure;BME280_temperature;BME280_humidity;BME280_pressure;Samples;Min_cycle;Max_cycle;Signal;HPM_P1;HPM_P2
2021/12/29 00:02:25;;;;;;;59.28;20.35;;;;;;;;;;5024368;28;20439;-57
2021/12/29 00:04:50;;;;;;;21.00;3.67;;;;;;;;;;5034125;28;20032;-57
2021/12/29 00:07:17;;;;;;;10.55;3.63;;;;;;;;;;5020691;28;20026;-53
2021/12/29 00:09:42;;;;;;;9.98;3.28;;;;;;;;;;5017937;28;20028;-52
2021/12/29 00:12:10;;;;;;;11.48;3.20;;;;;;;;;;5032366;28;20033;-52
2021/12/29 00:14:37;;;;;;;15.27;4.40;;;;;;;;;;5026275;28;20079;-54
2021/12/29 00:17:03;;;;;;;12.70;2.88;;;;;;;;;;5028116;28;20130;-56
2021/12/29 00:19:29;;;;;;;9.70;2.97;;;;;;;;;;5030768;28;20098;-53
2021/12/29 00:21:55;;;;;;;8.82;2.55;;;;;;;;;;5023613;28;20026;-55
2021/12/29 00:24:21;;;;;;;9.48;2.25;;;;;;;;;;5034364;28;20033;-55
2021/12/29 00:26:47;;;;;;;8.65;2.47;;;;;;;;;;5030305;28;20088;-57
2021/12/29 00:29:14;;;;;;;9.70;2.83;;;;;;;;;;5032301;28;20363;-51
2021/12/29 00:31:40;;;;;;;6.25;2.42;;;;;;;;;;5027605;28;20041;-57
2021/12/29 00:34:06;;;;;;;8.63;1.67;;;;;;;;;;5027021;28;20018;-55
2021/12/29 00:36:32;;;;;;;14.80;2.10;;;;;;;;;;5022142;28;20033;-50
2021/12/29 00:38:57;;;;;;;7.72;2.08;;;;;;;;;;5027491;28;20022;-54
2021/12/29 00:41:23;;;;;;;10.38;2.45;;;;;;;;;;5021288;28;20479;-56
2021/12/29 00:43:49;;;;;;;12.35;2.22;;;;;;;;;;5031140;28;20123;-54
2021/12/29 00:46:17;;;;;;;10.43;2.15;;;;;;;;;;5023441;28;20496;-51
2021/12/29 00:48:44;;;;;;;14.02;2.03;;;;;;;;;;5022648;28;20033;-56
2021/12/29 00:51:11;;;;;;;12.15;1.88;;;;;;;;;;5035052;28;20029;-56
2021/12/29 00:53:38;;;;;;;12.63;2.22;;;;;;;;;;5026531;28;20041;-57
2021/12/29 00:56:04;;;;;;;10.65;2.08;;;;;;;;;;5029817;28;20440;-56
2021/12/29 00:58:30;;;;;;;12.95;2.78;;;;;;;;;;5023015;28;20140;-57
2021/12/29 01:00:56;;;;;;;9.13;1.77;;;;;;;;;;5019517;28;20026;-57
2021/12/29 01:03:23;;;;;;;8.13;1.90;;;;;;;;;;5023159;28;20048;-54
2021/12/29 01:05:48;;;;;;;13.13;2.28;;;;;;;;;;5029273;28;20025;-54
2021/12/29 01:08:15;;;;;;;8.93;2.33;;;;;;;;;;5031227;28;20108;-57
2021/12/29 01:10:44;;;;;;;10.98;2.38;;;;;;;;;;5030532;28;20528;-56
2021/12/29 01:13:14;;;;;;;9.85;2.70;;;;;;;;;;5018359;28;20050;-53
2021/12/29 01:16:15;;;;;;;12.55;2.50;;;;;;;;;;5023336;28;20523;-51
2021/12/29 01:18:43;;;;;;;12.77;2.20;;;;;;;;;;5030289;28;20053;-55
2021/12/29 01:21:09;;;;;;;9.70;2.33;;;;;;;;;;5027483;28;20037;-54
2021/12/29 01:23:36;;;;;;;12.98;2.35;;;;;;;;;;5033211;28;20034;-57
2021/12/29 01:26:02;;;;;;;6.03;2.08;;;;;;;;;;5025172;28;20044;-57
2021/12/29 01:28:28;;;;;;;9.60;2.00;;;;;;;;;;5026791;28;20021;-56
2021/12/29 01:30:54;;;;;;;12.07;2.22;;;;;;;;;;5016605;28;20028;-57
2021/12/29 01:33:20;;;;;;;11.00;3.42;;;;;;;;;;5023927;28;20371;-57
2021/12/29 01:35:46;;;;;;;13.48;3.88;;;;;;;;;;5028282;28;20040;-55
2021/12/29 01:38:12;;;;;;;15.90;4.18;;;;;;;;;;5034459;28;20039;-53
2021/12/29 01:40:40;;;;;;;19.90;4.90;;;;;;;;;;5025302;28;20041;-56
2021/12/29 01:43:07;;;;;;;10.95;3.30;;;;;;;;;;5024404;28;20087;-56
2021/12/29 01:45:33;;;;;;;13.13;4.13;;;;;;;;;;5021281;28;20040;-56
2021/12/29 01:48:01;;;;;;;16.70;3.97;;;;;;;;;;5023092;28;20034;-57
2021/12/29 01:50:29;;;;;;;12.40;4.70;;;;;;;;;;5027670;28;20033;-57
2021/12/29 01:53:01;;;;;;;22.25;5.05;;;;;;;;;;5032593;28;20390;-56
2021/12/29 01:55:30;;;;;;;12.82;4.20;;;;;;;;;;5025016;28;20040;-55
2021/12/29 01:57:57;;;;;;;20.52;4.72;;;;;;;;;;5020863;28;20065;-54
2021/12/29 02:00:26;;;;;;;16.13;4.22;;;;;;;;;;5024489;28;20025;-57
2021/12/29 02:02:52;;;;;;;12.48;3.92;;;;;;;;;;5025415;28;20103;-56
2021/12/29 02:05:19;;;;;;;15.35;4.25;;;;;;;;;;5031281;28;20025;-55
2021/12/29 02:07:45;;;;;;;15.30;3.72;;;;;;;;;;5029163;28;20021;-57
2021/12/29 02:10:14;;;;;;;14.55;3.63;;;;;;;;;;5019658;28;20108;-57
2021/12/29 02:12:40;;;;;;;10.57;3.63;;;;;;;;;;5032814;28;20116;-55
2021/12/29 02:15:08;;;;;;;10.43;2.60;;;;;;;;;;5021436;28;20033;-56
2021/12/29 02:17:34;;;;;;;7.13;2.53;;;;;;;;;;5034468;28;20083;-55
2021/12/29 02:20:01;;;;;;;7.60;2.03;;;;;;;;;;5029932;28;20107;-57
2021/12/29 02:22:44;;;;;;;8.20;1.85;;;;;;;;;;5033290;28;20382;-55
2021/12/29 02:27:47;;;;;;;5.85;2.13;;;;;;;;;;5021007;28;20128;-51
2021/12/29 02:30:16;;;;;;;7.00;1.58;;;;;;;;;;5036408;28;20068;-51
2021/12/29 02:32:43;;;;;;;8.73;1.83;;;;;;;;;;5035462;28;20049;-50
2021/12/29 02:35:10;;;;;;;8.65;1.75;;;;;;;;;;5035438;28;20386;-51
2021/12/29 02:37:37;;;;;;;5.88;1.73;;;;;;;;;;5026635;28;20030;-53
2021/12/29 02:40:04;;;;;;;6.93;1.70;;;;;;;;;;5024989;28;20498;-49
2021/12/29 02:42:38;;;;;;;7.43;1.52;;;;;;;;;;5021260;28;20095;-54
2021/12/29 02:45:05;;;;;;;13.00;2.00;;;;;;;;;;5027176;28;20029;-52
2021/12/29 02:47:31;;;;;;;4.65;1.58;;;;;;;;;;5031872;28;20440;-49
2021/12/29 02:49:58;;;;;;;11.27;1.70;;;;;;;;;;5031512;28;20033;-50
2021/12/29 02:52:24;;;;;;;8.50;1.67;;;;;;;;;;5027072;28;20026;-49
2021/12/29 02:54:51;;;;;;;4.60;1.23;;;;;;;;;;5028095;28;20029;-52
2021/12/29 02:57:18;;;;;;;9.82;1.83;;;;;;;;;;5025546;28;20037;-52
2021/12/29 02:59:43;;;;;;;5.38;1.33;;;;;;;;;;5023708;28;20037;-53
2021/12/29 03:02:09;;;;;;;5.03;1.38;;;;;;;;;;5033110;28;20029;-50
2021/12/29 03:04:35;;;;;;;7.47;1.33;;;;;;;;;;5023442;28;20033;-52
2021/12/29 03:07:01;;;;;;;9.85;1.90;;;;;;;;;;5024764;28;20124;-54
2021/12/29 03:09:27;;;;;;;5.40;1.40;;;;;;;;;;5021602;28;20149;-52
2021/12/29 03:11:53;;;;;;;4.45;1.25;;;;;;;;;;5021419;28;20113;-52
2021/12/29 03:14:20;;;;;;;8.10;1.77;;;;;;;;;;5034895;28;20028;-51
2021/12/29 03:16:46;;;;;;;9.27;1.98;;;;;;;;;;5032223;28;20029;-55
2021/12/29 03:19:13;;;;;;;5.28;1.67;;;;;;;;;;5030131;28;20063;-56
2021/12/29 03:21:40;;;;;;;4.22;1.25;;;;;;;;;;5033909;28;20075;-54
2021/12/29 03:24:06;;;;;;;4.40;1.50;;;;;;;;;;5019840;28;20379;-54
2021/12/29 03:26:32;;;;;;;10.95;1.80;;;;;;;;;;5029609;28;20022;-49
2021/12/29 03:28:58;;;;;;;3.95;1.15;;;;;;;;;;5028937;28;20493;-54
2021/12/29 03:31:25;;;;;;;7.20;1.20;;;;;;;;;;5021308;28;20124;-53
2021/12/29 03:33:51;;;;;;;5.70;1.50;;;;;;;;;;5025104;28;20030;-52
2021/12/29 03:36:18;;;;;;;2.97;1.23;;;;;;;;;;5016509;28;20025;-54
2021/12/29 03:38:45;;;;;;;7.15;1.80;;;;;;;;;;5021854;28;20410;-54
2021/12/29 03:41:14;;;;;;;8.02;1.65;;;;;;;;;;5023645;28;20068;-50
2021/12/29 03:43:42;;;;;;;6.35;1.45;;;;;;;;;;5024036;28;20045;-52
2021/12/29 03:46:08;;;;;;;5.85;1.30;;;;;;;;;;5024723;28;20386;-52
2021/12/29 03:48:36;;;;;;;5.80;1.60;;;;;;;;;;5020780;28;20059;-49
2021/12/29 03:51:03;;;;;;;3.72;1.80;;;;;;;;;;5033992;28;20538;-52
2021/12/29 03:53:29;;;;;;;3.60;1.50;;;;;;;;;;5030625;28;20548;-54
2021/12/29 03:55:56;;;;;;;5.28;1.58;;;;;;;;;;5026680;28;20029;-54
2021/12/29 03:58:23;;;;;;;13.85;2.60;;;;;;;;;;5033583;28;20021;-57
2021/12/29 04:00:52;;;;;;;7.40;1.45;;;;;;;;;;5023449;28;20382;-53
2021/12/29 04:03:18;;;;;;;4.47;1.55;;;;;;;;;;5029471;28;20494;-54
2021/12/29 04:05:44;;;;;;;7.78;2.10;;;;;;;;;;5036765;28;20033;-57
2021/12/29 04:08:10;;;;;;;6.25;1.77;;;;;;;;;;5032352;28;20090;-49
2021/12/29 04:10:36;;;;;;;5.10;1.42;;;;;;;;;;5022212;28;20061;-52
2021/12/29 04:13:02;;;;;;;8.45;1.35;;;;;;;;;;5032732;28;20026;-50
2021/12/29 04:15:30;;;;;;;5.50;1.52;;;;;;;;;;5026451;28;20025;-56
2021/12/29 04:18:03;;;;;;;10.70;1.40;;;;;;;;;;5017965;28;20479;-54
2021/12/29 04:23:19;;;;;;;7.28;2.08;;;;;;;;;;5029118;28;20436;-51
2021/12/29 04:25:49;;;;;;;7.47;1.10;;;;;;;;;;5031701;28;20025;-54
2021/12/29 04:28:20;;;;;;;4.05;1.00;;;;;;;;;;5023324;28;20844;-49
2021/12/29 04:30:48;;;;;;;2.75;1.10;;;;;;;;;;5027925;28;20042;-50
2021/12/29 04:33:15;;;;;;;7.50;1.13;;;;;;;;;;5026240;28;20030;-51
2021/12/29 04:35:40;;;;;;;3.42;1.30;;;;;;;;;;5028010;28;20053;-52
2021/12/29 04:38:07;;;;;;;2.78;1.35;;;;;;;;;;5028196;28;20485;-56
2021/12/29 04:40:33;;;;;;;4.03;1.02;;;;;;;;;;5022120;28;20501;-51
2021/12/29 04:42:59;;;;;;;6.13;1.25;;;;;;;;;;5020467;28;20047;-51
2021/12/29 04:45:25;;;;;;;3.70;1.10;;;;;;;;;;5025344;28;20033;-54
2021/12/29 04:47:51;;;;;;;4.90;1.35;;;;;;;;;;5031613;28;20079;-54
2021/12/29 04:50:37;;;;;;;3.17;0.90;;;;;;;;;;5027304;28;20033;-51
2021/12/29 04:53:05;;;;;;;3.72;1.52;;;;;;;;;;5031051;28;20371;-56
2021/12/29 04:55:31;;;;;;;2.28;1.08;;;;;;;;;;5026486;28;20033;-55
2021/12/29 04:57:59;;;;;;;4.78;1.63;;;;;;;;;;5026610;28;20582;-51
2021/12/29 05:00:26;;;;;;;2.00;0.95;;;;;;;;;;5034232;28;20036;-52
2021/12/29 05:02:53;;;;;;;2.40;0.77;;;;;;;;;;5030389;28;20044;-54
2021/12/29 05:05:41;;;;;;;15.07;1.20;;;;;;;;;;5029209;28;20060;-56
2021/12/29 05:11:08;;;;;;;4.53;0.80;;;;;;;;;;4985535;28;20046;-49
2021/12/29 05:13:36;;;;;;;2.35;0.60;;;;;;;;;;4986463;28;20058;-53
2021/12/29 05:16:02;;;;;;;2.30;0.98;;;;;;;;;;4986560;28;20483;-53
2021/12/29 05:18:31;;;;;;;11.02;1.52;;;;;;;;;;4985761;28;20197;-54
2021/12/29 05:20:57;;;;;;;6.13;1.45;;;;;;;;;;4986713;28;20053;-56
2021/12/29 05:23:24;;;;;;;6.07;1.58;;;;;;;;;;4986044;28;20423;-53
2021/12/29 05:25:50;;;;;;;1.52;1.17;;;;;;;;;;4986494;28;20041;-51
2021/12/29 05:28:19;;;;;;;2.90;1.45;;;;;;;;;;4985920;28;20149;-55
2021/12/29 05:30:46;;;;;;;1.38;1.00;;;;;;;;;;4985494;28;20046;-54
2021/12/29 05:33:13;;;;;;;1.27;1.02;;;;;;;;;;4970867;28;20085;-52
2021/12/29 05:35:39;;;;;;;1.10;1.00;;;;;;;;;;4985723;28;20736;-55
2021/12/29 05:38:04;;;;;;;3.78;1.10;;;;;;;;;;4986052;28;20030;-54
2021/12/29 05:40:30;;;;;;;4.13;1.45;;;;;;;;;;4988509;28;20125;-51
2021/12/29 05:42:57;;;;;;;2.55;1.50;;;;;;;;;;4990113;28;20042;-49
2021/12/29 05:45:24;;;;;;;4.38;1.20;;;;;;;;;;4990075;28;20034;-51
2021/12/29 05:47:50;;;;;;;7.03;1.92;;;;;;;;;;5036915;28;20049;-52
2021/12/29 05:50:23;;;;;;;3.80;0.95;;;;;;;;;;5028421;28;20030;-49
2021/12/29 05:52:49;;;;;;;4.75;1.52;;;;;;;;;;5031875;28;20389;-55
2021/12/29 05:55:14;;;;;;;2.55;1.50;;;;;;;;;;5026996;28;20042;-54
2021/12/29 05:57:41;;;;;;;2.08;1.38;;;;;;;;;;5032527;28;20375;-50
2021/12/29 06:00:10;;;;;;;3.92;1.52;;;;;;;;;;5035045;28;20379;-53
2021/12/29 06:02:36;;;;;;;2.20;1.55;;;;;;;;;;5033221;28;20442;-53
2021/12/29 06:05:02;;;;;;;2.63;1.88;;;;;;;;;;5025807;28;20040;-55
2021/12/29 06:07:28;;;;;;;8.27;1.40;;;;;;;;;;5025232;28;20509;-50
2021/12/29 06:09:54;;;;;;;6.90;1.85;;;;;;;;;;5031380;28;20025;-50
2021/12/29 06:12:19;;;;;;;6.97;1.40;;;;;;;;;;5041598;28;20040;-53
2021/12/29 06:14:47;;;;;;;3.47;1.63;;;;;;;;;;5031030;28;20026;-52
2021/12/29 06:17:14;;;;;;;1.70;1.38;;;;;;;;;;5023407;28;20033;-50
2021/12/29 06:19:40;;;;;;;5.80;1.42;;;;;;;;;;5023857;28;20045;-57
2021/12/29 06:22:11;;;;;;;4.38;1.50;;;;;;;;;;5021139;28;20407;-52
2021/12/29 06:24:38;;;;;;;3.83;1.83;;;;;;;;;;5033982;28;20052;-54
2021/12/29 06:27:04;;;;;;;1.67;1.25;;;;;;;;;;5036290;28;20513;-51
2021/12/29 06:29:30;;;;;;;4.60;1.48;;;;;;;;;;5034073;28;20065;-51
2021/12/29 06:31:56;;;;;;;3.45;1.67;;;;;;;;;;5025845;28;20041;-52
2021/12/29 06:34:21;;;;;;;1.98;1.80;;;;;;;;;;5028795;28;20041;-51
2021/12/29 06:36:47;;;;;;;2.95;1.77;;;;;;;;;;5020975;28;20033;-52
2021/12/29 06:39:13;;;;;;;2.40;2.20;;;;;;;;;;5026523;28;20080;-56
2021/12/29 06:41:39;;;;;;;3.25;2.90;;;;;;;;;;5031535;28;20086;-52
2021/12/29 06:44:05;;;;;;;4.22;3.67;;;;;;;;;;5036664;28;20033;-55
2021/12/29 06:46:30;;;;;;;10.65;3.55;;;;;;;;;;5027465;28;20034;-54
2021/12/29 06:48:56;;;;;;;4.93;2.60;;;;;;;;;;5027851;28;20040;-56
2021/12/29 06:51:22;;;;;;;2.72;2.47;;;;;;;;;;5027888;28;20112;-55
2021/12/29 06:53:48;;;;;;;3.42;3.13;;;;;;;;;;5027713;28;20022;-53
2021/12/29 06:56:14;;;;;;;7.53;4.07;;;;;;;;;;5028320;28;20084;-53
2021/12/29 06:58:40;;;;;;;12.73;8.27;;;;;;;;;;5028717;28;20037;-55
2021/12/29 07:01:06;;;;;;;11.73;8.13;;;;;;;;;;5027220;28;20368;-54
2021/12/29 07:03:32;;;;;;;16.27;7.95;;;;;;;;;;5028114;28;20033;-56
2021/12/29 07:05:59;;;;;;;38.75;18.40;;;;;;;;;;5028482;28;20045;-54
2021/12/29 07:08:25;;;;;;;50.15;25.77;;;;;;;;;;5030036;28;20030;-56
2021/12/29 07:10:50;;;;;;;80.85;38.40;;;;;;;;;;5029536;28;20031;-56
2021/12/29 07:13:16;;;;;;;64.07;31.05;;;;;;;;;;5033819;28;20119;-56
2021/12/29 07:15:42;;;;;;;30.88;16.10;;;;;;;;;;5030582;28;20128;-53
2021/12/29 07:18:08;;;;;;;40.90;21.88;;;;;;;;;;5027506;28;20040;-57
2021/12/29 07:20:35;;;;;;;44.42;22.08;;;;;;;;;;5033819;28;20034;-56
2021/12/29 07:23:01;;;;;;;32.38;13.75;;;;;;;;;;5030068;28;20038;-56
2021/12/29 07:25:29;;;;;;;18.60;11.25;;;;;;;;;;5022191;28;20107;-52
2021/12/29 07:27:55;;;;;;;15.25;8.48;;;;;;;;;;5023464;28;20147;-49
2021/12/29 07:30:22;;;;;;;12.93;7.20;;;;;;;;;;5033076;28;20025;-53
2021/12/29 07:32:48;;;;;;;26.13;15.07;;;;;;;;;;5023082;28;20121;-55
2021/12/29 07:35:14;;;;;;;23.67;15.57;;;;;;;;;;5031406;28;20060;-53
2021/12/29 07:37:40;;;;;;;19.23;12.70;;;;;;;;;;5026315;28;20087;-55
2021/12/29 07:40:08;;;;;;;12.75;9.45;;;;;;;;;;5025143;28;20033;-56
2021/12/29 07:42:39;;;;;;;9.50;7.28;;;;;;;;;;5024033;28;20029;-53
2021/12/29 07:45:08;;;;;;;9.38;6.13;;;;;;;;;;5026981;28;20035;-56
2021/12/29 07:47:45;;;;;;;7.93;5.25;;;;;;;;;;5031282;28;20026;-51
2021/12/29 07:50:11;;;;;;;5.40;4.85;;;;;;;;;;5030167;28;20034;-51
2021/12/29 07:52:37;;;;;;;9.07;5.68;;;;;;;;;;5030549;28;20040;-56
2021/12/29 07:55:03;;;;;;;6.43;5.15;;;;;;;;;;5034628;28;20536;-52
2021/12/29 07:57:29;;;;;;;5.15;4.72;;;;;;;;;;5019125;28;20030;-57
2021/12/29 07:59:54;;;;;;;8.50;5.05;;;;;;;;;;5026036;28;20026;-53
2021/12/29 08:02:27;;;;;;;6.80;5.90;;;;;;;;;;5025709;28;20025;-54
2021/12/29 08:04:55;;;;;;;6.32;5.53;;;;;;;;;;5026416;28;20028;-51
2021/12/29 08:07:21;;;;;;;7.75;5.70;;;;;;;;;;5030710;28;20426;-57
2021/12/29 08:09:48;;;;;;;5.50;4.95;;;;;;;;;;5024675;28;20387;-52
2021/12/29 08:12:14;;;;;;;5.38;4.45;;;;;;;;;;5024886;28;20479;-55
2021/12/29 08:14:39;;;;;;;7.97;4.97;;;;;;;;;;5057985;28;20036;-56
2021/12/29 08:17:05;;;;;;;4.75;4.10;;;;;;;;;;5029854;28;20033;-57
2021/12/29 08:19:31;;;;;;;5.03;4.53;;;;;;;;;;5029498;28;20054;-57
2021/12/29 08:21:57;;;;;;;12.52;4.28;;;;;;;;;;5026252;28;20346;-55
2021/12/29 08:24:22;;;;;;;5.35;4.63;;;;;;;;;;5029577;28;20040;-52
2021/12/29 08:26:48;;;;;;;4.95;4.55;;;;;;;;;;5027374;28;20033;-55
2021/12/29 08:29:14;;;;;;;6.65;4.65;;;;;;;;;;5022637;28;20030;-57
2021/12/29 08:31:39;;;;;;;5.28;4.63;;;;;;;;;;5025096;28;20379;-57
2021/12/29 08:34:05;;;;;;;6.05;5.32;;;;;;;;;;5032678;28;20037;-55
2021/12/29 08:36:31;;;;;;;6.32;5.00;;;;;;;;;;5026071;28;20026;-52
2021/12/29 08:38:57;;;;;;;8.45;5.47;;;;;;;;;;5025403;28;20091;-56
2021/12/29 08:41:22;;;;;;;5.60;4.47;;;;;;;;;;5027281;28;20041;-55
2021/12/29 08:43:48;;;;;;;7.93;4.55;;;;;;;;;;5026114;28;20405;-56
2021/12/29 08:46:16;;;;;;;6.00;4.60;;;;;;;;;;5026574;28;20029;-56
2021/12/29 08:48:42;;;;;;;4.85;4.22;;;;;;;;;;5017826;28;20025;-57
2021/12/29 08:51:09;;;;;;;5.63;4.30;;;;;;;;;;5023414;28;20356;-56
2021/12/29 08:53:35;;;;;;;9.93;4.72;;;;;;;;;;5022375;28;20030;-54
2021/12/29 08:56:01;;;;;;;7.95;4.03;;;;;;;;;;5033590;28;20029;-57
2021/12/29 08:58:27;;;;;;;5.22;3.70;;;;;;;;;;5023783;28;20382;-57
2021/12/29 09:00:55;;;;;;;3.85;3.55;;;;;;;;;;5026758;28;20026;-57
2021/12/29 09:03:21;;;;;;;4.00;3.70;;;;;;;;;;5020284;28;20033;-56
2021/12/29 09:05:48;;;;;;;6.30;3.83;;;;;;;;;;5028321;28;20034;-57
2021/12/29 09:08:14;;;;;;;3.67;3.38;;;;;;;;;;5033581;28;20029;-55
2021/12/29 09:10:39;;;;;;;3.42;3.13;;;;;;;;;;5022211;28;20461;-52
2021/12/29 09:13:05;;;;;;;6.38;3.28;;;;;;;;;;5026081;28;20532;-56
2021/12/29 09:15:31;;;;;;;4.93;3.30;;;;;;;;;;5024019;28;20112;-56
2021/12/29 09:17:59;;;;;;;3.17;2.97;;;;;;;;;;5032068;28;20038;-56
2021/12/29 09:20:29;;;;;;;3.30;2.95;;;;;;;;;;5035777;28;20060;-57
2021/12/29 09:22:58;;;;;;;4.15;3.20;;;;;;;;;;5028833;28;20413;-57
2021/12/29 09:25:24;;;;;;;2.60;2.17;;;;;;;;;;5034537;28;20608;-51
2021/12/29 09:27:50;;;;;;;3.28;2.58;;;;;;;;;;5025233;28;20036;-57
2021/12/29 09:30:21;;;;;;;2.60;2.40;;;;;;;;;;5034653;28;20025;-56
2021/12/29 09:32:46;;;;;;;4.68;2.67;;;;;;;;;;5036017;28;20029;-56
2021/12/29 09:35:12;;;;;;;2.78;2.58;;;;;;;;;;5032543;28;20501;-57
2021/12/29 09:37:39;;;;;;;3.78;3.00;;;;;;;;;;5032484;28;20104;-57
2021/12/29 09:40:07;;;;;;;5.93;3.10;;;;;;;;;;5022755;28;20121;-57
2021/12/29 09:42:32;;;;;;;3.08;2.88;;;;;;;;;;5029077;28;20075;-52
2021/12/29 09:44:58;;;;;;;2.83;2.63;;;;;;;;;;5030645;28;20468;-55
2021/12/29 09:47:24;;;;;;;4.97;3.38;;;;;;;;;;5028681;28;20080;-54
2021/12/29 09:49:50;;;;;;;4.00;3.13;;;;;;;;;;5031676;28;20102;-51
2021/12/29 09:52:15;;;;;;;5.25;3.38;;;;;;;;;;5025093;28;20025;-53
2021/12/29 09:54:41;;;;;;;3.08;2.88;;;;;;;;;;5024214;28;20026;-58
2021/12/29 09:57:07;;;;;;;5.53;3.20;;;;;;;;;;5031969;28;20033;-51
2021/12/29 09:59:33;;;;;;;3.65;2.83;;;;;;;;;;5032198;28;20080;-52
2021/12/29 10:01:59;;;;;;;4.47;2.75;;;;;;;;;;5029762;28;20038;-51
2021/12/29 10:04:25;;;;;;;2.80;2.60;;;;;;;;;;5026162;28;20036;-57
2021/12/29 10:06:51;;;;;;;3.03;2.53;;;;;;;;;;5027622;28;20426;-54
2021/12/29 10:09:18;;;;;;;3.60;2.85;;;;;;;;;;5036653;28;20034;-48
2021/12/29 10:11:45;;;;;;;2.30;2.20;;;;;;;;;;5036903;28;20033;-52
2021/12/29 10:14:14;;;;;;;2.25;2.05;;;;;;;;;;5025967;28;20466;-53
2021/12/29 10:16:41;;;;;;;3.92;1.92;;;;;;;;;;5025869;28;20029;-53
2021/12/29 10:19:12;;;;;;;3.80;2.10;;;;;;;;;;5025326;28;20445;-52
2021/12/29 10:21:46;;;;;;;2.25;1.85;;;;;;;;;;5032384;28;20033;-51
2021/12/29 10:24:12;;;;;;;2.28;1.67;;;;;;;;;;5023510;28;20037;-55
2021/12/29 10:26:43;;;;;;;5.68;2.70;;;;;;;;;;5026467;28;20034;-50
2021/12/29 10:29:12;;;;;;;2.03;1.80;;;;;;;;;;5027434;28;20057;-53
2021/12/29 10:31:40;;;;;;;3.15;1.65;;;;;;;;;;5030300;28;20029;-53
2021/12/29 10:34:09;;;;;;;1.67;1.40;;;;;;;;;;5027234;28;20034;-53
2021/12/29 10:36:43;;;;;;;1.70;1.58;;;;;;;;;;5025940;28;20073;-53
2021/12/29 10:39:31;;;;;;;3.70;1.70;;;;;;;;;;5031648;28;20044;-54
2021/12/29 10:41:58;;;;;;;2.10;1.90;;;;;;;;;;5029957;28;20033;-51
2021/12/29 10:44:46;;;;;;;1.80;1.70;;;;;;;;;;5031503;28;20041;-51
2021/12/29 10:47:17;;;;;;;1.73;1.63;;;;;;;;;;5033591;28;20128;-53
2021/12/29 10:50:02;;;;;;;1.70;1.60;;;;;;;;;;5028794;28;20030;-52
2021/12/29 10:52:33;;;;;;;2.42;1.30;;;;;;;;;;5033594;28;20094;-52
2021/12/29 10:55:00;;;;;;;1.63;1.33;;;;;;;;;;5017147;28;20029;-52
2021/12/29 10:57:26;;;;;;;1.65;1.30;;;;;;;;;;5027436;28;20430;-54
2021/12/29 11:00:02;;;;;;;1.52;1.42;;;;;;;;;;5031000;28;20034;-54
2021/12/29 11:02:35;;;;;;;1.35;1.20;;;;;;;;;;5028031;28;20571;-53
2021/12/29 11:05:05;;;;;;;1.30;1.20;;;;;;;;;;5033908;28;20069;-52
2021/12/29 11:07:33;;;;;;;5.00;1.20;;;;;;;;;;5018175;28;20116;-51
2021/12/29 11:10:17;;;;;;;2.38;1.17;;;;;;;;;;5031677;28;20200;-54
2021/12/29 11:12:53;;;;;;;1.38;1.05;;;;;;;;;;5030641;28;20044;-54
2021/12/29 11:15:26;;;;;;;3.10;1.10;;;;;;;;;;5025253;28;20065;-52
2021/12/29 11:17:53;;;;;;;1.92;1.00;;;;;;;;;;5033246;28;20490;-49
2021/12/29 11:20:25;;;;;;;2.22;0.90;;;;;;;;;;5019999;28;20710;-51
2021/12/29 11:22:51;;;;;;;1.30;0.43;;;;;;;;;;5026886;28;20079;-54
2021/12/29 11:25:31;;;;;;;6.03;0.50;;;;;;;;;;5022885;28;20620;-52
2021/12/29 11:27:56;;;;;;;0.70;0.32;;;;;;;;;;5026632;28;20065;-55
2021/12/29 11:30:22;;;;;;;0.30;0.20;;;;;;;;;;5032189;28;20136;-57
2021/12/29 11:32:49;;;;;;;1.10;0.50;;;;;;;;;;5028522;28;20033;-50
2021/12/29 11:35:18;;;;;;;0.60;0.30;;;;;;;;;;5028890;28;20103;-50
2021/12/29 11:37:52;;;;;;;0.55;0.38;;;;;;;;;;5032563;28;20478;-52
2021/12/29 11:40:24;;;;;;;3.30;0.28;;;;;;;;;;5022550;28;20031;-52
2021/12/29 11:42:51;;;;;;;1.33;0.50;;;;;;;;;;5015138;28;20029;-52
2021/12/29 11:45:17;;;;;;;0.90;0.52;;;;;;;;;;5030563;28;20017;-55
2021/12/29 11:47:43;;;;;;;1.42;0.93;;;;;;;;;;5024330;28;20038;-53
2021/12/29 11:50:12;;;;;;;0.73;0.73;;;;;;;;;;5026776;28;20550;-53
2021/12/29 11:52:51;;;;;;;3.13;0.70;;;;;;;;;;5027024;28;20064;-54
2021/12/29 11:55:24;;;;;;;0.65;0.50;;;;;;;;;;5025549;28;20041;-51
2021/12/29 11:57:50;;;;;;;0.98;0.88;;;;;;;;;;5017037;28;20566;-55
2021/12/29 12:00:19;;;;;;;2.70;0.40;;;;;;;;;;5028532;28;20124;-53
2021/12/29 12:02:52;;;;;;;1.23;0.60;;;;;;;;;;5029097;28;20029;-51
2021/12/29 12:05:22;;;;;;;3.40;0.60;;;;;;;;;;5023984;28;20028;-52
2021/12/29 12:07:48;;;;;;;3.83;0.75;;;;;;;;;;5030495;28;20095;-56
2021/12/29 12:10:35;;;;;;;0.63;0.52;;;;;;;;;;5030091;28;20034;-56
2021/12/29 12:13:05;;;;;;;2.95;0.52;;;;;;;;;;5023997;28;20390;-56
2021/12/29 12:15:39;;;;;;;0.50;0.50;;;;;;;;;;5032293;28;20662;-53
2021/12/29 12:18:08;;;;;;;1.02;0.45;;;;;;;;;;5034012;28;20048;-53
2021/12/29 12:20:42;;;;;;;1.92;0.60;;;;;;;;;;5029277;28;20486;-53
2021/12/29 12:23:09;;;;;;;1.92;0.80;;;;;;;;;;5033181;28;20033;-52
2021/12/29 12:25:36;;;;;;;2.15;0.60;;;;;;;;;;5034337;28;20086;-53
2021/12/29 12:28:13;;;;;;;0.47;0.47;;;;;;;;;;5028181;28;20385;-51
2021/12/29 12:30:45;;;;;;;1.65;0.80;;;;;;;;;;5013246;28;20052;-57
2021/12/29 12:33:12;;;;;;;;;;;;;;;;;;5024556;28;20510;-55
2021/12/29 12:35:41;;;;;;;1.13;0.60;;;;;;;;;;5025310;28;19936;-54
2021/12/29 12:38:17;;;;;;;0.45;0.43;;;;;;;;;;5027513;28;20026;-53
2021/12/29 12:40:43;;;;;;;1.30;0.50;;;;;;;;;;5021082;28;20029;-53
2021/12/29 12:43:13;;;;;;;0.88;0.63;;;;;;;;;;5019252;28;20057;-56
2021/12/29 12:45:42;;;;;;;0.50;0.50;;;;;;;;;;5029149;28;20029;-54
2021/12/29 12:48:13;;;;;;;2.92;0.70;;;;;;;;;;5026432;28;20061;-54
2021/12/29 12:50:42;;;;;;;4.95;0.90;;;;;;;;;;5031309;28;20104;-52
2021/12/29 12:53:09;;;;;;;0.50;0.45;;;;;;;;;;5026251;28;20657;-56
2021/12/29 12:55:47;;;;;;;2.20;1.10;;;;;;;;;;5032789;28;20036;-52
2021/12/29 12:58:17;;;;;;;2.72;1.45;;;;;;;;;;5026979;28;20033;-55
2021/12/29 13:01:07;;;;;;;4.43;2.03;;;;;;;;;;5027904;28;20387;-55
2021/12/29 13:03:33;;;;;;;4.22;1.83;;;;;;;;;;5015011;28;20455;-56
2021/12/29 13:06:00;;;;;;;4.10;1.83;;;;;;;;;;5030693;28;20493;-53
2021/12/29 13:08:35;;;;;;;7.32;1.77;;;;;;;;;;5030856;28;20044;-54
2021/12/29 13:11:05;;;;;;;4.05;1.90;;;;;;;;;;5026119;28;20045;-56
2021/12/29 13:13:37;;;;;;;1.70;1.40;;;;;;;;;;5028059;28;20032;-55
2021/12/29 13:16:06;;;;;;;1.20;0.88;;;;;;;;;;5024877;28;20033;-54
2021/12/29 13:18:33;;;;;;;3.83;1.40;;;;;;;;;;5028153;28;20042;-55
2021/12/29 13:21:02;;;;;;;2.80;0.88;;;;;;;;;;5025187;28;20033;-55
2021/12/29 13:23:28;;;;;;;2.45;0.90;;;;;;;;;;5031898;28;20049;-55
2021/12/29 13:25:56;;;;;;;2.85;0.80;;;;;;;;;;5032040;28;20026;-55
2021/12/29 13:28:22;;;;;;;0.95;0.70;;;;;;;;;;5026174;28;20075;-55
2021/12/29 13:30:55;;;;;;;4.20;1.00;;;;;;;;;;5028267;28;20021;-53
2021/12/29 13:33:29;;;;;;;2.05;0.60;;;;;;;;;;5025276;28;20479;-57
2021/12/29 13:35:57;;;;;;;2.33;0.93;;;;;;;;;;5031522;28;20497;-52
2021/12/29 13:38:24;;;;;;;4.88;1.17;;;;;;;;;;5028565;28;20540;-57
2021/12/29 13:40:53;;;;;;;3.03;1.52;;;;;;;;;;5024394;28;20036;-51
2021/12/29 13:43:30;;;;;;;1.13;0.82;;;;;;;;;;5031498;28;20029;-52
2021/12/29 13:46:05;;;;;;;2.67;0.90;;;;;;;;;;5028883;28;20107;-56
2021/12/29 13:48:34;;;;;;;0.73;0.70;;;;;;;;;;5018654;28;20030;-54
2021/12/29 13:51:07;;;;;;;1.38;0.60;;;;;;;;;;5035867;28;20033;-56
2021/12/29 13:53:36;;;;;;;1.75;0.68;;;;;;;;;;5024472;28;20029;-56
2021/12/29 13:56:11;;;;;;;3.70;0.70;;;;;;;;;;5033245;28;20123;-53
2021/12/29 13:58:37;;;;;;;3.20;0.98;;;;;;;;;;5029441;28;20025;-51
2021/12/29 14:01:05;;;;;;;1.00;0.68;;;;;;;;;;5021649;28;20068;-52
2021/12/29 14:03:32;;;;;;;1.55;0.82;;;;;;;;;;5035448;28;20034;-56
2021/12/29 14:06:04;;;;;;;1.27;0.70;;;;;;;;;;5025860;28;20064;-57
2021/12/29 14:08:34;;;;;;;0.50;0.50;;;;;;;;;;5018400;28;20022;-53
2021/12/29 14:11:03;;;;;;;1.48;0.70;;;;;;;;;;5037978;28;20033;-57
2021/12/29 14:13:33;;;;;;;0.57;0.55;;;;;;;;;;5026565;28;20025;-57
2021/12/29 14:16:08;;;;;;;1.80;0.50;;;;;;;;;;5030527;28;20033;-56
2021/12/29 14:18:40;;;;;;;2.70;0.70;;;;;;;;;;5026620;28;20077;-54
2021/12/29 14:21:23;;;;;;;3.03;0.65;;;;;;;;;;5029616;28;20120;-57
2021/12/29 14:23:53;;;;;;;;;;;;;;;;;;5029429;28;20030;-54
2021/12/29 14:26:20;;;;;;;1.02;0.55;;;;;;;;;;5034115;28;19917;-57
2021/12/29 14:28:57;;;;;;;5.18;0.70;;;;;;;;;;5035305;28;20104;-55
2021/12/29 14:31:26;;;;;;;0.47;0.47;;;;;;;;;;5034835;28;20356;-55
2021/12/29 14:33:53;;;;;;;0.70;0.70;;;;;;;;;;5021649;28;20104;-57
2021/12/29 14:36:35;;;;;;;2.03;0.98;;;;;;;;;;5035175;28;20034;-56
2021/12/29 14:39:05;;;;;;;0.63;0.52;;;;;;;;;;5024365;28;20040;-57
2021/12/29 14:41:31;;;;;;;3.00;0.85;;;;;;;;;;5035769;28;20033;-57
2021/12/29 14:44:00;;;;;;;0.75;0.75;;;;;;;;;;5030846;28;20025;-56
2021/12/29 14:46:27;;;;;;;3.10;0.70;;;;;;;;;;5024856;28;20032;-56
2021/12/29 14:48:59;;;;;;;1.25;0.70;;;;;;;;;;5017401;28;20035;-57
2021/12/29 14:51:25;;;;;;;0.75;0.75;;;;;;;;;;5029380;28;20036;-56
2021/12/29 14:53:51;;;;;;;3.90;0.90;;;;;;;;;;5024062;28;20092;-54
2021/12/29 14:56:21;;;;;;;0.88;0.80;;;;;;;;;;5038512;28;20029;-53